sensor_id;sensor_type;location;lat;lon;timestamp;temperature;humidity
15044;DHT22;7619;48.562;8.910;2023-03-23T00:00:10;10.70;99.90
15044;DHT22;7619;48.562;8.910;2023-03-23T00:02:39;10.70;99.90
15044;DHT22;7619;48.562;8.910;2023-03-23T00:05:10;10.70;99.90
15044;DHT22;7619;48.562;8.910;2023-03-23T00:07:39;10.80;99.90
15044;DHT22;7619;48.562;8.910;2023-03-23T00:10:10;10.80;99.90
15044;DHT22;7619;48.562;8.910;2023-03-23T00:12:39;10.80;99.90
15044;DHT22;7619;48.562;8.910;2023-03-23T00:15:10;10.70;99.90
15044;DHT22;7619;48.562;8.910;2023-03-23T00:17:40;10.70;99.90
15044;DHT22;7619;48.562;8.910;2023-03-23T00:20:11;10.40;99.90
15044;DHT22;7619;48.562;8.910;2023-03-23T00:22:40;10.30;99.90
15044;DHT22;7619;48.562;8.910;2023-03-23T00:25:10;10.20;99.90
15044;DHT22;7619;48.562;8.910;2023-03-23T00:27:40;10.10;99.90
15044;DHT22;7619;48.562;8.910;2023-03-23T00:30:10;10.10;99.90
15044;DHT22;7619;48.562;8.910;2023-03-23T00:32:39;10.10;99.90
15044;DHT22;7619;48.562;8.910;2023-03-23T00:35:09;10.20;99.90
15044;DHT22;7619;48.562;8.910;2023-03-23T00:37:38;10.30;99.90
15044;DHT22;7619;48.562;8.910;2023-03-23T00:40:08;10.40;99.90
15044;DHT22;7619;48.562;8.910;2023-03-23T00:42:37;10.40;99.90
15044;DHT22;7619;48.562;8.910;2023-03-23T00:45:08;10.40;99.90
15044;DHT22;7619;48.562;8.910;2023-03-23T00:47:39;10.50;99.90
15044;DHT22;7619;48.562;8.910;2023-03-23T00:50:10;10.50;99.90
15044;DHT22;7619;48.562;8.910;2023-03-23T00:52:40;10.60;99.90
15044;DHT22;7619;48.562;8.910;2023-03-23T00:55:09;10.60;99.90
15044;DHT22;7619;48.562;8.910;2023-03-23T00:57:38;10.60;99.90
15044;DHT22;7619;48.562;8.910;2023-03-23T01:00:11;10.60;99.90
15044;DHT22;7619;48.562;8.910;2023-03-23T01:02:40;10.70;99.90
15044;DHT22;7619;48.562;8.910;2023-03-23T01:05:11;6.50;99.90
15044;DHT22;7619;48.562;8.910;2023-03-23T01:07:40;10.60;99.90
15044;DHT22;7619;48.562;8.910;2023-03-23T01:10:10;10.70;99.90
15044;DHT22;7619;48.562;8.910;2023-03-23T01:12:44;10.60;99.90
15044;DHT22;7619;48.562;8.910;2023-03-23T01:15:17;10.60;99.90
15044;DHT22;7619;48.562;8.910;2023-03-23T01:17:47;10.60;99.90
15044;DHT22;7619;48.562;8.910;2023-03-23T01:20:16;10.60;99.90
15044;DHT22;7619;48.562;8.910;2023-03-23T01:22:45;10.60;99.90
15044;DHT22;7619;48.562;8.910;2023-03-23T01:25:15;10.60;99.90
15044;DHT22;7619;48.562;8.910;2023-03-23T01:27:44;10.50;99.90
15044;DHT22;7619;48.562;8.910;2023-03-23T01:30:15;10.60;99.90
15044;DHT22;7619;48.562;8.910;2023-03-23T01:32:44;10.50;99.90
15044;DHT22;7619;48.562;8.910;2023-03-23T01:35:13;10.60;99.90
15044;DHT22;7619;48.562;8.910;2023-03-23T01:37:42;10.60;99.90
15044;DHT22;7619;48.562;8.910;2023-03-23T01:40:13;10.50;99.90
15044;DHT22;7619;48.562;8.910;2023-03-23T01:42:42;10.60;99.90
15044;DHT22;7619;48.562;8.910;2023-03-23T01:45:31;10.60;99.90
15044;DHT22;7619;48.562;8.910;2023-03-23T01:48:10;10.60;99.90
15044;DHT22;7619;48.562;8.910;2023-03-23T01:50:49;10.50;99.90
15044;DHT22;7619;48.562;8.910;2023-03-23T01:53:18;10.40;99.90
15044;DHT22;7619;48.562;8.910;2023-03-23T01:55:49;10.30;99.90
15044;DHT22;7619;48.562;8.910;2023-03-23T01:58:22;10.40;99.90
15044;DHT22;7619;48.562;8.910;2023-03-23T02:00:53;10.50;99.90
15044;DHT22;7619;48.562;8.910;2023-03-23T02:03:23;10.50;99.90
15044;DHT22;7619;48.562;8.910;2023-03-23T02:05:52;10.60;99.90
15044;DHT22;7619;48.562;8.910;2023-03-23T02:08:23;10.60;99.90
15044;DHT22;7619;48.562;8.910;2023-03-23T02:10:51;10.60;99.90
15044;DHT22;7619;48.562;8.910;2023-03-23T02:13:21;10.70;99.90
15044;DHT22;7619;48.562;8.910;2023-03-23T02:15:56;10.70;99.90
15044;DHT22;7619;48.562;8.910;2023-03-23T02:18:41;10.70;99.90
15044;DHT22;7619;48.562;8.910;2023-03-23T02:24:56;10.60;99.90
15044;DHT22;7619;48.562;8.910;2023-03-23T02:27:51;10.50;99.90
15044;DHT22;7619;48.562;8.910;2023-03-23T02:30:31;10.50;99.90
15044;DHT22;7619;48.562;8.910;2023-03-23T02:36:02;10.50;99.90
15044;DHT22;7619;48.562;8.910;2023-03-23T02:38:35;10.60;99.90
15044;DHT22;7619;48.562;8.910;2023-03-23T02:41:05;10.60;99.90
15044;DHT22;7619;48.562;8.910;2023-03-23T02:43:37;10.50;99.90
15044;DHT22;7619;48.562;8.910;2023-03-23T02:46:08;10.50;99.90
15044;DHT22;7619;48.562;8.910;2023-03-23T02:48:39;10.50;99.90
15044;DHT22;7619;48.562;8.910;2023-03-23T02:51:10;10.40;99.90
15044;DHT22;7619;48.562;8.910;2023-03-23T02:53:41;10.40;99.90
15044;DHT22;7619;48.562;8.910;2023-03-23T02:56:13;10.40;99.90
15044;DHT22;7619;48.562;8.910;2023-03-23T02:58:42;10.40;99.90
15044;DHT22;7619;48.562;8.910;2023-03-23T03:04:07;10.30;99.90
15044;DHT22;7619;48.562;8.910;2023-03-23T03:06:40;10.30;99.90
15044;DHT22;7619;48.562;8.910;2023-03-23T03:09:13;10.20;99.90
15044;DHT22;7619;48.562;8.910;2023-03-23T03:11:45;10.20;99.90
15044;DHT22;7619;48.562;8.910;2023-03-23T03:14:18;10.20;99.90
15044;DHT22;7619;48.562;8.910;2023-03-23T03:16:52;10.30;99.90
15044;DHT22;7619;48.562;8.910;2023-03-23T03:19:23;10.30;99.90
15044;DHT22;7619;48.562;8.910;2023-03-23T03:21:54;10.40;99.90
15044;DHT22;7619;48.562;8.910;2023-03-23T03:24:27;10.40;99.90
15044;DHT22;7619;48.562;8.910;2023-03-23T03:26:59;10.40;99.90
15044;DHT22;7619;48.562;8.910;2023-03-23T03:29:32;10.40;99.90
15044;DHT22;7619;48.562;8.910;2023-03-23T03:32:04;10.40;99.90
15044;DHT22;7619;48.562;8.910;2023-03-23T03:34:34;10.50;99.90
15044;DHT22;7619;48.562;8.910;2023-03-23T03:37:05;10.50;99.90
15044;DHT22;7619;48.562;8.910;2023-03-23T03:39:36;10.60;99.90
15044;DHT22;7619;48.562;8.910;2023-03-23T03:42:05;10.60;99.90
15044;DHT22;7619;48.562;8.910;2023-03-23T03:44:35;10.60;99.90
15044;DHT22;7619;48.562;8.910;2023-03-23T03:47:04;10.70;99.90
15044;DHT22;7619;48.562;8.910;2023-03-23T03:49:33;10.70;99.90
15044;DHT22;7619;48.562;8.910;2023-03-23T03:52:03;10.70;99.90
15044;DHT22;7619;48.562;8.910;2023-03-23T03:54:31;10.60;99.90
15044;DHT22;7619;48.562;8.910;2023-03-23T03:57:00;10.60;99.90
15044;DHT22;7619;48.562;8.910;2023-03-23T03:59:29;10.60;99.90
15044;DHT22;7619;48.562;8.910;2023-03-23T04:01:58;10.70;99.90
15044;DHT22;7619;48.562;8.910;2023-03-23T04:04:27;10.70;99.90
15044;DHT22;7619;48.562;8.910;2023-03-23T04:06:56;10.70;99.90
15044;DHT22;7619;48.562;8.910;2023-03-23T04:09:25;10.70;99.90
15044;DHT22;7619;48.562;8.910;2023-03-23T04:11:55;10.70;99.90
15044;DHT22;7619;48.562;8.910;2023-03-23T04:14:24;10.60;99.90
15044;DHT22;7619;48.562;8.910;2023-03-23T04:16:53;10.60;99.90
15044;DHT22;7619;48.562;8.910;2023-03-23T04:19:24;10.50;99.90
15044;DHT22;7619;48.562;8.910;2023-03-23T04:21:55;10.60;99.90
15044;DHT22;7619;48.562;8.910;2023-03-23T04:24:25;10.60;99.90
15044;DHT22;7619;48.562;8.910;2023-03-23T04:26:55;10.60;99.90
15044;DHT22;7619;48.562;8.910;2023-03-23T04:29:25;10.70;99.90
15044;DHT22;7619;48.562;8.910;2023-03-23T04:31:54;10.70;99.90
15044;DHT22;7619;48.562;8.910;2023-03-23T04:34:24;10.70;99.90
15044;DHT22;7619;48.562;8.910;2023-03-23T04:36:53;10.80;99.90
15044;DHT22;7619;48.562;8.910;2023-03-23T04:39:23;10.80;99.90
15044;DHT22;7619;48.562;8.910;2023-03-23T04:41:54;10.80;99.90
15044;DHT22;7619;48.562;8.910;2023-03-23T04:44:22;10.70;99.90
15044;DHT22;7619;48.562;8.910;2023-03-23T04:46:51;10.70;99.90
15044;DHT22;7619;48.562;8.910;2023-03-23T04:49:21;10.80;99.90
15044;DHT22;7619;48.562;8.910;2023-03-23T04:51:50;10.90;99.90
15044;DHT22;7619;48.562;8.910;2023-03-23T04:54:19;10.90;99.90
15044;DHT22;7619;48.562;8.910;2023-03-23T04:56:48;11.00;99.90
15044;DHT22;7619;48.562;8.910;2023-03-23T04:59:17;11.10;99.90
15044;DHT22;7619;48.562;8.910;2023-03-23T05:01:46;10.90;99.90
15044;DHT22;7619;48.562;8.910;2023-03-23T05:04:15;10.90;99.90
15044;DHT22;7619;48.562;8.910;2023-03-23T05:06:44;10.80;99.90
15044;DHT22;7619;48.562;8.910;2023-03-23T05:09:13;10.80;99.90
15044;DHT22;7619;48.562;8.910;2023-03-23T05:11:42;10.80;99.90
15044;DHT22;7619;48.562;8.910;2023-03-23T05:14:11;10.70;99.90
15044;DHT22;7619;48.562;8.910;2023-03-23T05:16:40;10.70;99.90
15044;DHT22;7619;48.562;8.910;2023-03-23T05:19:09;10.70;99.90
15044;DHT22;7619;48.562;8.910;2023-03-23T05:21:38;10.70;99.90
15044;DHT22;7619;48.562;8.910;2023-03-23T05:26:47;11.00;99.90
15044;DHT22;7619;48.562;8.910;2023-03-23T05:34:14;11.20;99.90
15044;DHT22;7619;48.562;8.910;2023-03-23T05:44:11;11.40;99.90
15044;DHT22;7619;48.562;8.910;2023-03-23T05:49:09;11.50;99.90
15044;DHT22;7619;48.562;8.910;2023-03-23T05:51:38;11.50;99.90
15044;DHT22;7619;48.562;8.910;2023-03-23T05:54:07;11.60;99.90
15044;DHT22;7619;48.562;8.910;2023-03-23T05:56:38;11.60;99.90
15044;DHT22;7619;48.562;8.910;2023-03-23T06:01:36;11.70;99.90
15044;DHT22;7619;48.562;8.910;2023-03-23T06:04:05;11.80;99.90
15044;DHT22;7619;48.562;8.910;2023-03-23T06:09:03;11.90;99.90
15044;DHT22;7619;48.562;8.910;2023-03-23T06:11:33;12.00;99.90
15044;DHT22;7619;48.562;8.910;2023-03-23T06:14:02;12.10;99.90
15044;DHT22;7619;48.562;8.910;2023-03-23T06:19:00;12.10;99.90
15044;DHT22;7619;48.562;8.910;2023-03-23T06:21:30;12.20;99.90
15044;DHT22;7619;48.562;8.910;2023-03-23T06:23:59;12.30;99.90
15044;DHT22;7619;48.562;8.910;2023-03-23T06:26:31;12.30;99.90
15044;DHT22;7619;48.562;8.910;2023-03-23T06:33:57;12.20;99.90
15044;DHT22;7619;48.562;8.910;2023-03-23T06:36:26;12.20;99.90
15044;DHT22;7619;48.562;8.910;2023-03-23T06:38:55;12.10;99.90
15044;DHT22;7619;48.562;8.910;2023-03-23T06:41:24;12.20;99.90
15044;DHT22;7619;48.562;8.910;2023-03-23T06:43:53;12.30;99.90
15044;DHT22;7619;48.562;8.910;2023-03-23T06:46:23;12.40;99.90
15044;DHT22;7619;48.562;8.910;2023-03-23T06:48:52;12.50;99.90
15044;DHT22;7619;48.562;8.910;2023-03-23T06:56:18;12.70;99.90
15044;DHT22;7619;48.562;8.910;2023-03-23T07:06:13;12.90;99.90
15044;DHT22;7619;48.562;8.910;2023-03-23T07:08:42;13.00;99.90
15044;DHT22;7619;48.562;8.910;2023-03-23T07:13:40;13.00;99.90
15044;DHT22;7619;48.562;8.910;2023-03-23T07:16:11;13.00;99.90
15044;DHT22;7619;48.562;8.910;2023-03-23T07:18:40;13.00;99.90
15044;DHT22;7619;48.562;8.910;2023-03-23T07:21:11;13.00;99.90
15044;DHT22;7619;48.562;8.910;2023-03-23T07:23:40;13.00;99.90
15044;DHT22;7619;48.562;8.910;2023-03-23T07:26:11;13.00;99.90
15044;DHT22;7619;48.562;8.910;2023-03-23T07:28:41;13.00;99.90
15044;DHT22;7619;48.562;8.910;2023-03-23T07:31:11;13.00;99.90
15044;DHT22;7619;48.562;8.910;2023-03-23T07:33:41;13.00;99.90
15044;DHT22;7619;48.562;8.910;2023-03-23T07:36:12;13.10;99.90
15044;DHT22;7619;48.562;8.910;2023-03-23T07:38:41;13.10;99.90
15044;DHT22;7619;48.562;8.910;2023-03-23T07:41:12;13.20;99.90
15044;DHT22;7619;48.562;8.910;2023-03-23T07:43:41;13.40;99.90
15044;DHT22;7619;48.562;8.910;2023-03-23T07:48:39;13.70;99.90
15044;DHT22;7619;48.562;8.910;2023-03-23T07:51:11;13.80;99.90
15044;DHT22;7619;48.562;8.910;2023-03-23T08:01:08;14.50;99.90
15044;DHT22;7619;48.562;8.910;2023-03-23T08:03:37;14.60;99.90
15044;DHT22;7619;48.562;8.910;2023-03-23T08:06:08;14.70;99.90
15044;DHT22;7619;48.562;8.910;2023-03-23T08:08:38;14.70;99.90
15044;DHT22;7619;48.562;8.910;2023-03-23T08:11:08;14.70;99.90
15044;DHT22;7619;48.562;8.910;2023-03-23T08:13:37;14.70;99.90
15044;DHT22;7619;48.562;8.910;2023-03-23T08:18:37;15.50;99.90
15044;DHT22;7619;48.562;8.910;2023-03-23T08:21:08;16.10;99.90
15044;DHT22;7619;48.562;8.910;2023-03-23T08:23:38;16.10;99.90
15044;DHT22;7619;48.562;8.910;2023-03-23T08:26:08;15.40;99.90
15044;DHT22;7619;48.562;8.910;2023-03-23T08:28:38;15.30;99.90
15044;DHT22;7619;48.562;8.910;2023-03-23T08:33:38;14.70;99.90
15044;DHT22;7619;48.562;8.910;2023-03-23T08:36:09;14.70;99.90
15044;DHT22;7619;48.562;8.910;2023-03-23T08:41:08;14.80;99.90
15044;DHT22;7619;48.562;8.910;2023-03-23T08:43:38;14.90;99.90
15044;DHT22;7619;48.562;8.910;2023-03-23T08:56:05;14.90;99.90
15044;DHT22;7619;48.562;8.910;2023-03-23T08:58:35;14.80;99.90
15044;DHT22;7619;48.562;8.910;2023-03-23T09:06:04;14.60;99.90
15044;DHT22;7619;48.562;8.910;2023-03-23T09:11:04;14.50;99.90
15044;DHT22;7619;48.562;8.910;2023-03-23T09:16:02;14.50;99.90
15044;DHT22;7619;48.562;8.910;2023-03-23T09:18:32;14.40;99.90
15044;DHT22;7619;48.562;8.910;2023-03-23T09:21:03;14.40;99.90
15044;DHT22;7619;48.562;8.910;2023-03-23T09:23:33;14.50;99.90
15044;DHT22;7619;48.562;8.910;2023-03-23T09:28:30;14.60;99.90
15044;DHT22;7619;48.562;8.910;2023-03-23T09:31:00;14.60;99.90
15044;DHT22;7619;48.562;8.910;2023-03-23T09:33:28;14.60;99.90
15044;DHT22;7619;48.562;8.910;2023-03-23T09:36:01;14.60;99.90
15044;DHT22;7619;48.562;8.910;2023-03-23T09:41:04;14.70;99.90
15044;DHT22;7619;48.562;8.910;2023-03-23T09:48:50;15.10;99.90
15044;DHT22;7619;48.562;8.910;2023-03-23T09:56:29;15.30;99.90
15044;DHT22;7619;48.562;8.910;2023-03-23T09:58:58;15.30;99.90
15044;DHT22;7619;48.562;8.910;2023-03-23T10:03:59;15.60;99.90
15044;DHT22;7619;48.562;8.910;2023-03-23T10:06:29;15.90;99.90
15044;DHT22;7619;48.562;8.910;2023-03-23T10:09:00;16.10;99.90
15044;DHT22;7619;48.562;8.910;2023-03-23T10:11:39;16.40;99.90
15044;DHT22;7619;48.562;8.910;2023-03-23T10:16:53;16.50;99.90
15044;DHT22;7619;48.562;8.910;2023-03-23T10:19:26;16.50;99.90
15044;DHT22;7619;48.562;8.910;2023-03-23T10:34:30;15.80;99.90
15044;DHT22;7619;48.562;8.910;2023-03-23T10:39:32;15.90;99.90
15044;DHT22;7619;48.562;8.910;2023-03-23T10:42:02;16.00;99.90
15044;DHT22;7619;48.562;8.910;2023-03-23T10:47:04;16.00;99.90
15044;DHT22;7619;48.562;8.910;2023-03-23T10:54:39;16.30;99.90
15044;DHT22;7619;48.562;8.910;2023-03-23T10:57:20;16.50;99.90
15044;DHT22;7619;48.562;8.910;2023-03-23T11:02:19;16.50;99.90
15044;DHT22;7619;48.562;8.910;2023-03-23T11:04:59;16.50;99.90
15044;DHT22;7619;48.562;8.910;2023-03-23T11:07:29;16.50;99.90
15044;DHT22;7619;48.562;8.910;2023-03-23T11:15:16;15.50;99.90
15044;DHT22;7619;48.562;8.910;2023-03-23T11:27:46;16.90;99.90
15044;DHT22;7619;48.562;8.910;2023-03-23T11:30:23;17.10;99.90
15044;DHT22;7619;48.562;8.910;2023-03-23T11:35:26;17.00;99.90
15044;DHT22;7619;48.562;8.910;2023-03-23T11:40:26;17.00;99.90
15044;DHT22;7619;48.562;8.910;2023-03-23T11:48:13;16.80;99.90
15044;DHT22;7619;48.562;8.910;2023-03-23T11:50:44;16.70;99.90
15044;DHT22;7619;48.562;8.910;2023-03-23T11:55:56;16.80;99.90
15044;DHT22;7619;48.562;8.910;2023-03-23T11:58:25;16.80;99.90
15044;DHT22;7619;48.562;8.910;2023-03-23T12:00:58;16.80;99.90
15044;DHT22;7619;48.562;8.910;2023-03-23T12:03:33;16.80;99.90
15044;DHT22;7619;48.562;8.910;2023-03-23T12:08:49;17.20;99.90
15044;DHT22;7619;48.562;8.910;2023-03-23T12:16:25;17.10;99.90
15044;DHT22;7619;48.562;8.910;2023-03-23T12:18:58;17.00;99.90
15044;DHT22;7619;48.562;8.910;2023-03-23T12:21:31;17.00;99.90
15044;DHT22;7619;48.562;8.910;2023-03-23T12:29:21;16.90;99.90
15044;DHT22;7619;48.562;8.910;2023-03-23T12:32:01;16.80;99.90
15044;DHT22;7619;48.562;8.910;2023-03-23T12:34:37;16.80;99.90
15044;DHT22;7619;48.562;8.910;2023-03-23T12:42:21;17.40;99.90
15044;DHT22;7619;48.562;8.910;2023-03-23T12:44:53;17.50;99.90
15044;DHT22;7619;48.562;8.910;2023-03-23T12:47:37;17.50;99.90
15044;DHT22;7619;48.562;8.910;2023-03-23T12:52:42;17.80;99.90
15044;DHT22;7619;48.562;8.910;2023-03-23T12:55:14;17.90;99.90
15044;DHT22;7619;48.562;8.910;2023-03-23T12:57:47;18.00;99.90
15044;DHT22;7619;48.562;8.910;2023-03-23T13:00:22;17.90;99.90
15044;DHT22;7619;48.562;8.910;2023-03-23T13:05:35;18.10;99.90
15044;DHT22;7619;48.562;8.910;2023-03-23T13:08:10;18.40;99.90
15044;DHT22;7619;48.562;8.910;2023-03-23T13:13:13;18.40;99.90
15044;DHT22;7619;48.562;8.910;2023-03-23T13:23:22;17.90;99.90
15044;DHT22;7619;48.562;8.910;2023-03-23T13:25:55;17.80;99.90
15044;DHT22;7619;48.562;8.910;2023-03-23T13:28:27;17.70;99.90
15044;DHT22;7619;48.562;8.910;2023-03-23T13:30:59;17.80;99.90
15044;DHT22;7619;48.562;8.910;2023-03-23T13:36:07;17.40;99.90
15044;DHT22;7619;48.562;8.910;2023-03-23T13:38:38;17.40;99.90
15044;DHT22;7619;48.562;8.910;2023-03-23T13:41:10;17.50;99.90
15044;DHT22;7619;48.562;8.910;2023-03-23T13:43:40;17.70;99.90
15044;DHT22;7619;48.562;8.910;2023-03-23T13:46:26;18.00;99.90
15044;DHT22;7619;48.562;8.910;2023-03-23T13:48:46;18.10;99.90
15044;DHT22;7619;48.562;8.910;2023-03-23T13:51:36;18.10;99.90
15044;DHT22;7619;48.562;8.910;2023-03-23T13:54:23;18.10;99.90
15044;DHT22;7619;48.562;8.910;2023-03-23T13:59:45;17.80;99.90
15044;DHT22;7619;48.562;8.910;2023-03-23T14:10:22;17.70;99.90
15044;DHT22;7619;48.562;8.910;2023-03-23T14:12:53;17.60;99.90
15044;DHT22;7619;48.562;8.910;2023-03-23T14:17:53;17.80;99.90
15044;DHT22;7619;48.562;8.910;2023-03-23T14:22:55;17.70;99.90
15044;DHT22;7619;48.562;8.910;2023-03-23T14:25:27;17.50;99.90
